createdAt,value
2022-12-24T00:00:19.841Z,981.97
2022-12-24T00:01:19.789Z,982.03
2022-12-24T00:02:19.921Z,982.10
2022-12-24T00:03:19.874Z,982.00
2022-12-24T00:04:19.769Z,982.07
2022-12-24T00:05:19.778Z,982.04
2022-12-24T00:06:19.741Z,982.08
2022-12-24T00:07:19.736Z,982.09
2022-12-24T00:08:19.713Z,982.09
2022-12-24T00:09:19.725Z,982.21
2022-12-24T00:10:19.715Z,982.12
2022-12-24T00:11:19.714Z,982.15
2022-12-24T00:12:19.677Z,982.13
2022-12-24T00:13:19.669Z,982.10
2022-12-24T00:14:19.645Z,982.02
2022-12-24T00:15:19.654Z,982.11
2022-12-24T00:16:19.635Z,982.10
2022-12-24T00:17:19.631Z,982.03
2022-12-24T00:18:19.620Z,982.14
2022-12-24T00:19:19.597Z,982.09
2022-12-24T00:20:19.574Z,982.13
2022-12-24T00:21:19.578Z,982.14
2022-12-24T00:22:19.564Z,982.19
2022-12-24T00:23:19.550Z,982.15
2022-12-24T00:24:19.551Z,982.13
2022-12-24T00:25:19.545Z,982.22
2022-12-24T00:26:19.533Z,982.20
2022-12-24T00:27:19.501Z,982.14
2022-12-24T00:28:19.507Z,982.14
2022-12-24T00:29:19.499Z,982.18
2022-12-24T00:30:19.469Z,982.25
2022-12-24T00:31:20.571Z,982.22
2022-12-24T00:32:19.457Z,982.23
2022-12-24T00:33:24.237Z,982.24
2022-12-24T00:34:21.440Z,982.29
2022-12-24T00:35:19.448Z,982.31
2022-12-24T00:36:19.452Z,982.27
2022-12-24T00:37:19.402Z,982.38
2022-12-24T00:38:19.398Z,982.40
2022-12-24T00:39:19.382Z,982.42
2022-12-24T00:40:19.364Z,982.37
2022-12-24T00:41:19.478Z,982.47
2022-12-24T00:42:19.340Z,982.46
2022-12-24T00:43:19.340Z,982.46
2022-12-24T00:44:19.321Z,982.38
2022-12-24T00:45:19.308Z,982.49
2022-12-24T00:46:19.377Z,982.48
2022-12-24T00:47:19.311Z,982.47
2022-12-24T00:48:19.288Z,982.33
2022-12-24T00:49:19.265Z,982.50
2022-12-24T00:50:19.251Z,982.50
2022-12-24T00:51:19.342Z,982.52
2022-12-24T00:52:19.262Z,982.53
2022-12-24T00:53:19.209Z,982.64
2022-12-24T00:54:20.218Z,982.66
2022-12-24T00:55:19.211Z,982.62
2022-12-24T00:56:19.190Z,982.67
2022-12-24T00:57:19.171Z,982.71
2022-12-24T00:58:19.187Z,982.74
2022-12-24T00:59:19.287Z,982.74
2022-12-24T01:00:19.148Z,982.86
2022-12-24T01:01:19.261Z,982.84
2022-12-24T01:02:19.429Z,982.81
2022-12-24T01:03:19.162Z,982.82
2022-12-24T01:04:19.112Z,982.86
2022-12-24T01:05:19.086Z,982.87
2022-12-24T01:06:19.079Z,982.95
2022-12-24T01:07:19.079Z,982.92
2022-12-24T01:08:19.092Z,982.99
2022-12-24T01:09:19.058Z,982.93
2022-12-24T01:10:19.037Z,982.96
2022-12-24T01:11:19.022Z,983.03
2022-12-24T01:12:19.014Z,983.05
2022-12-24T01:13:19.019Z,983.01
2022-12-24T01:14:18.990Z,982.86
2022-12-24T01:15:18.989Z,983.03
2022-12-24T01:16:19.188Z,983.04
2022-12-24T01:17:18.966Z,983.03
2022-12-24T01:18:18.946Z,983.04
2022-12-24T01:19:18.948Z,983.11
2022-12-24T01:20:18.927Z,983.11
2022-12-24T01:21:18.908Z,983.08
2022-12-24T01:22:18.899Z,983.16
2022-12-24T01:23:19.901Z,983.12
2022-12-24T01:24:18.935Z,983.15
2022-12-24T01:25:18.866Z,983.22
2022-12-24T01:26:18.850Z,983.17
2022-12-24T01:27:18.843Z,983.28
2022-12-24T01:28:18.830Z,983.19
2022-12-24T01:29:18.863Z,983.30
2022-12-24T01:30:18.805Z,983.27
2022-12-24T01:31:18.896Z,983.30
2022-12-24T01:32:18.809Z,983.30
2022-12-24T01:33:18.770Z,983.32
2022-12-24T01:34:18.763Z,983.36
2022-12-24T01:35:18.780Z,983.36
2022-12-24T01:36:18.744Z,983.27
2022-12-24T01:37:18.756Z,983.32
2022-12-24T01:38:18.755Z,983.34
2022-12-24T01:39:18.715Z,983.26
2022-12-24T01:40:18.720Z,983.19
2022-12-24T01:41:18.714Z,983.22
2022-12-24T01:42:18.730Z,983.16
2022-12-24T01:43:18.662Z,983.31
2022-12-24T01:44:19.669Z,983.35
2022-12-24T01:45:18.643Z,983.21
2022-12-24T01:46:18.697Z,983.26
2022-12-24T01:47:18.635Z,983.14
2022-12-24T01:48:18.648Z,983.20
2022-12-24T01:49:18.629Z,983.25
2022-12-24T01:50:18.604Z,983.22
2022-12-24T01:51:18.616Z,983.24
2022-12-24T01:52:18.576Z,983.33
2022-12-24T01:53:18.571Z,983.30
2022-12-24T01:54:18.554Z,983.32
2022-12-24T01:55:18.532Z,983.39
2022-12-24T01:56:18.523Z,983.41
2022-12-24T01:57:19.500Z,983.42
2022-12-24T01:58:18.505Z,983.46
2022-12-24T01:59:18.509Z,983.44
2022-12-24T02:00:18.494Z,983.42
2022-12-24T02:01:18.554Z,983.47
2022-12-24T02:02:18.708Z,983.52
2022-12-24T02:03:18.502Z,983.52
2022-12-24T02:04:18.438Z,983.46
2022-12-24T02:05:18.441Z,983.52
2022-12-24T02:06:18.411Z,983.50
2022-12-24T02:07:18.429Z,983.52
2022-12-24T02:08:18.401Z,983.59
2022-12-24T02:09:18.363Z,983.66
2022-12-24T02:10:18.371Z,983.65
2022-12-24T02:11:18.351Z,983.65
2022-12-24T02:12:18.354Z,983.70
2022-12-24T02:13:18.332Z,983.73
2022-12-24T02:14:18.329Z,983.83
2022-12-24T02:15:18.311Z,983.78
2022-12-24T02:16:18.348Z,983.79
2022-12-24T02:17:18.302Z,983.85
2022-12-24T02:18:18.365Z,983.86
2022-12-24T02:19:18.282Z,983.91
2022-12-24T02:20:18.300Z,983.89
2022-12-24T02:21:19.245Z,983.98
2022-12-24T02:22:18.242Z,983.96
2022-12-24T02:23:18.244Z,983.98
2022-12-24T02:24:18.224Z,983.97
2022-12-24T02:25:18.271Z,983.98
2022-12-24T02:26:18.195Z,984.03
2022-12-24T02:27:18.238Z,984.06
2022-12-24T02:28:18.189Z,984.12
2022-12-24T02:29:18.155Z,984.07
2022-12-24T02:30:18.150Z,984.11
2022-12-24T02:31:18.149Z,984.12
2022-12-24T02:32:18.120Z,984.09
2022-12-24T02:33:18.134Z,984.09
2022-12-24T02:34:18.101Z,984.08
2022-12-24T02:35:18.100Z,984.14
2022-12-24T02:36:18.075Z,984.10
2022-12-24T02:37:18.115Z,984.11
2022-12-24T02:38:18.077Z,984.17
2022-12-24T02:39:18.053Z,984.20
2022-12-24T02:40:18.046Z,984.23
2022-12-24T02:41:18.017Z,984.23
2022-12-24T02:42:18.042Z,984.30
2022-12-24T02:43:18.021Z,984.25
2022-12-24T02:44:18.005Z,984.28
2022-12-24T02:45:17.994Z,984.31
2022-12-24T02:46:17.990Z,984.34
2022-12-24T02:47:17.956Z,984.29
2022-12-24T02:48:17.952Z,984.38
2022-12-24T02:49:17.946Z,984.35
2022-12-24T02:50:17.925Z,984.40
2022-12-24T02:51:17.913Z,984.35
2022-12-24T02:52:17.921Z,984.41
2022-12-24T02:53:17.885Z,984.38
2022-12-24T02:54:17.878Z,984.43
2022-12-24T02:55:18.882Z,984.42
2022-12-24T02:56:17.853Z,984.43
2022-12-24T02:57:17.876Z,984.58
2022-12-24T02:58:17.837Z,984.51
2022-12-24T02:59:17.834Z,984.59
2022-12-24T03:00:17.836Z,984.58
2022-12-24T03:01:18.053Z,984.62
2022-12-24T03:02:17.953Z,984.56
2022-12-24T03:03:17.791Z,984.50
2022-12-24T03:04:17.770Z,984.62
2022-12-24T03:05:18.786Z,984.59
2022-12-24T03:06:17.762Z,984.64
2022-12-24T03:07:17.753Z,984.71
2022-12-24T03:08:17.736Z,984.65
2022-12-24T03:09:17.718Z,984.64
2022-12-24T03:10:17.726Z,984.69
2022-12-24T03:11:17.698Z,984.64
2022-12-24T03:12:17.711Z,984.69
2022-12-24T03:13:17.772Z,984.72
2022-12-24T03:14:17.668Z,984.68
2022-12-24T03:15:17.653Z,984.75
2022-12-24T03:16:17.788Z,984.79
2022-12-24T03:17:17.634Z,984.74
2022-12-24T03:18:17.618Z,984.87
2022-12-24T03:19:17.610Z,984.89
2022-12-24T03:20:17.624Z,984.85
2022-12-24T03:21:17.591Z,984.90
2022-12-24T03:22:17.571Z,984.87
2022-12-24T03:23:17.580Z,984.93
2022-12-24T03:24:17.562Z,984.92
2022-12-24T03:25:17.542Z,984.97
2022-12-24T03:26:17.535Z,985.02
2022-12-24T03:27:17.657Z,985.10
2022-12-24T03:28:17.528Z,985.07
2022-12-24T03:29:17.496Z,985.05
2022-12-24T03:30:17.481Z,985.17
2022-12-24T03:31:17.507Z,985.08
2022-12-24T03:32:17.486Z,985.13
2022-12-24T03:33:17.458Z,985.12
2022-12-24T03:34:18.450Z,985.09
2022-12-24T03:35:17.430Z,985.19
2022-12-24T03:36:17.420Z,985.16
2022-12-24T03:37:17.404Z,985.21
2022-12-24T03:38:17.430Z,985.11
2022-12-24T03:39:17.388Z,985.22
2022-12-24T03:40:17.403Z,985.19
2022-12-24T03:41:17.376Z,985.21
2022-12-24T03:42:17.391Z,985.25
2022-12-24T03:43:17.361Z,985.18
2022-12-24T03:44:17.337Z,985.32
2022-12-24T03:45:17.334Z,985.30
2022-12-24T03:46:17.344Z,985.31
2022-12-24T03:47:17.301Z,985.31
2022-12-24T03:48:17.300Z,985.37
2022-12-24T03:49:17.291Z,985.42
2022-12-24T03:50:17.380Z,985.41
2022-12-24T03:51:17.252Z,985.43
2022-12-24T03:52:17.240Z,985.43
2022-12-24T03:53:17.242Z,985.41
2022-12-24T03:54:17.232Z,985.45
2022-12-24T03:55:17.233Z,985.48
2022-12-24T03:56:17.225Z,985.46
2022-12-24T03:57:17.197Z,985.45
2022-12-24T03:58:17.173Z,985.49
2022-12-24T03:59:17.192Z,985.46
2022-12-24T04:00:17.163Z,985.43
2022-12-24T04:01:17.292Z,985.47
2022-12-24T04:02:17.555Z,985.38
2022-12-24T04:03:17.207Z,985.40
2022-12-24T04:04:17.119Z,985.45
2022-12-24T04:05:17.127Z,985.50
2022-12-24T04:06:17.097Z,985.51
2022-12-24T04:07:17.121Z,985.51
2022-12-24T04:08:17.689Z,985.48
2022-12-24T04:09:17.069Z,985.53
2022-12-24T04:10:17.097Z,985.59
2022-12-24T04:11:17.056Z,985.54
2022-12-24T04:12:17.045Z,985.61
2022-12-24T04:13:17.024Z,985.55
2022-12-24T04:14:17.013Z,985.58
2022-12-24T04:15:17.046Z,985.64
2022-12-24T04:16:17.159Z,985.62
2022-12-24T04:17:48.890Z,985.64
2022-12-24T04:18:16.995Z,985.72
2022-12-24T04:19:16.963Z,985.71
2022-12-24T04:20:16.973Z,985.77
2022-12-24T04:21:16.988Z,985.79
2022-12-24T04:22:17.021Z,985.80
2022-12-24T04:23:16.935Z,985.72
2022-12-24T04:24:16.930Z,985.72
2022-12-24T04:25:16.982Z,985.75
2022-12-24T04:26:16.916Z,985.78
2022-12-24T04:27:16.870Z,985.83
2022-12-24T04:28:16.879Z,985.83
2022-12-24T04:29:16.850Z,985.83
2022-12-24T04:30:17.589Z,985.87
2022-12-24T04:31:16.916Z,985.81
2022-12-24T04:32:16.852Z,985.94
2022-12-24T04:33:16.804Z,985.87
2022-12-24T04:34:16.803Z,985.94
2022-12-24T04:35:16.787Z,985.95
2022-12-24T04:36:16.787Z,985.96
2022-12-24T04:37:16.775Z,985.98
2022-12-24T04:38:16.790Z,985.91
2022-12-24T04:39:16.788Z,985.97
2022-12-24T04:40:16.741Z,985.91
2022-12-24T04:41:23.148Z,985.91
2022-12-24T04:42:18.718Z,985.87
2022-12-24T04:43:16.699Z,985.84
2022-12-24T04:44:16.734Z,985.82
2022-12-24T04:45:16.667Z,985.86
2022-12-24T04:46:16.722Z,985.85
2022-12-24T04:47:16.672Z,985.88
2022-12-24T04:48:16.635Z,985.87
2022-12-24T04:49:16.618Z,985.85
2022-12-24T04:50:16.605Z,985.88
2022-12-24T04:51:16.596Z,985.78
2022-12-24T04:52:16.590Z,985.92
2022-12-24T04:53:16.649Z,985.90
2022-12-24T04:54:16.581Z,985.89
2022-12-24T04:55:16.576Z,985.97
2022-12-24T04:56:16.555Z,985.96
2022-12-24T04:57:16.599Z,985.86
2022-12-24T04:58:16.522Z,985.87
2022-12-24T04:59:16.532Z,985.91
2022-12-24T05:00:16.564Z,985.95
2022-12-24T05:01:16.625Z,985.95
2022-12-24T05:02:16.608Z,985.99
2022-12-24T05:03:16.555Z,985.99
2022-12-24T05:04:16.462Z,986.06
2022-12-24T05:05:16.442Z,986.00
2022-12-24T05:06:16.442Z,986.02
2022-12-24T05:07:16.424Z,985.95
2022-12-24T05:08:16.465Z,985.98
2022-12-24T05:09:16.463Z,986.08
2022-12-24T05:10:16.397Z,986.02
2022-12-24T05:11:16.389Z,986.03
2022-12-24T05:12:16.365Z,986.06
2022-12-24T05:13:16.419Z,986.14
2022-12-24T05:14:16.345Z,986.12
2022-12-24T05:15:16.341Z,986.14
2022-12-24T05:16:16.553Z,986.10
2022-12-24T05:17:16.376Z,986.13
2022-12-24T05:18:16.323Z,986.17
2022-12-24T05:19:16.352Z,986.20
2022-12-24T05:20:16.277Z,986.15
2022-12-24T05:21:16.293Z,986.22
2022-12-24T05:22:16.294Z,986.21
2022-12-24T05:23:16.262Z,986.26
2022-12-24T05:24:17.247Z,986.19
2022-12-24T05:25:16.234Z,986.19
2022-12-24T05:26:16.224Z,986.23
2022-12-24T05:27:16.209Z,986.23
2022-12-24T05:28:16.195Z,986.25
2022-12-24T05:29:16.186Z,986.26
2022-12-24T05:30:16.174Z,986.21
2022-12-24T05:31:16.259Z,986.09
2022-12-24T05:32:16.148Z,986.12
2022-12-24T05:33:16.145Z,986.17
2022-12-24T05:34:16.288Z,986.23
2022-12-24T05:35:16.149Z,986.26
2022-12-24T05:36:16.141Z,986.17
2022-12-24T05:37:16.122Z,986.17
2022-12-24T05:38:16.087Z,986.18
2022-12-24T05:39:17.257Z,986.22
2022-12-24T05:40:16.060Z,986.22
2022-12-24T05:41:16.074Z,986.26
2022-12-24T05:42:16.030Z,986.34
2022-12-24T05:43:16.033Z,986.33
2022-12-24T05:44:16.073Z,986.37
2022-12-24T05:45:16.215Z,986.30
2022-12-24T05:46:16.068Z,986.37
2022-12-24T05:47:16.087Z,986.31
2022-12-24T05:48:15.961Z,986.35
2022-12-24T05:49:15.989Z,986.40
2022-12-24T05:50:15.977Z,986.39
2022-12-24T05:51:16.047Z,986.39
2022-12-24T05:52:15.937Z,986.46
2022-12-24T05:53:15.929Z,986.45
2022-12-24T05:54:15.930Z,986.43
2022-12-24T05:55:15.893Z,986.37
2022-12-24T05:56:15.898Z,986.40
2022-12-24T05:57:19.826Z,986.40
2022-12-24T05:58:15.857Z,986.39
2022-12-24T05:59:15.857Z,986.40
2022-12-24T06:00:15.836Z,986.43
2022-12-24T06:01:15.888Z,986.40
2022-12-24T06:02:15.965Z,986.45
2022-12-24T06:03:15.868Z,986.49
2022-12-24T06:04:15.876Z,986.51
2022-12-24T06:05:15.849Z,986.50
2022-12-24T06:06:15.837Z,986.49
2022-12-24T06:07:15.771Z,986.61
2022-12-24T06:08:15.787Z,986.58
2022-12-24T06:09:15.759Z,986.62
2022-12-24T06:10:15.717Z,986.65
2022-12-24T06:11:15.794Z,986.70
2022-12-24T06:12:15.766Z,986.62
2022-12-24T06:13:15.718Z,986.64
2022-12-24T06:14:15.695Z,986.63
2022-12-24T06:15:21.915Z,986.71
2022-12-24T06:16:17.790Z,986.66
2022-12-24T06:17:15.662Z,986.66
2022-12-24T06:18:15.658Z,986.62
2022-12-24T06:19:15.631Z,986.69
2022-12-24T06:20:15.627Z,986.61
2022-12-24T06:21:15.619Z,986.64
2022-12-24T06:22:15.642Z,986.75
2022-12-24T06:23:15.603Z,986.64
2022-12-24T06:24:15.613Z,986.68
2022-12-24T06:25:15.591Z,986.67
2022-12-24T06:26:15.555Z,986.72
2022-12-24T06:27:15.542Z,986.66
2022-12-24T06:28:15.542Z,986.63
2022-12-24T06:29:15.520Z,986.72
2022-12-24T06:30:17.720Z,986.76
2022-12-24T06:31:15.591Z,986.68
2022-12-24T06:32:15.484Z,986.71
2022-12-24T06:33:15.486Z,986.73
2022-12-24T06:34:15.468Z,986.79
2022-12-24T06:35:15.440Z,986.80
2022-12-24T06:36:17.723Z,986.76
2022-12-24T06:37:16.444Z,986.77
2022-12-24T06:38:15.417Z,986.73
2022-12-24T06:39:15.438Z,986.76
2022-12-24T06:40:15.401Z,986.77
2022-12-24T06:41:15.380Z,986.79
2022-12-24T06:42:15.364Z,986.80
2022-12-24T06:43:15.370Z,986.81
2022-12-24T06:44:15.368Z,986.73
2022-12-24T06:45:15.360Z,986.72
2022-12-24T06:46:15.364Z,986.82
2022-12-24T06:47:15.341Z,986.71
2022-12-24T06:48:15.315Z,986.72
2022-12-24T06:49:15.321Z,986.71
2022-12-24T06:50:15.270Z,986.71
2022-12-24T06:51:15.285Z,986.75
2022-12-24T06:52:15.255Z,986.73
2022-12-24T06:53:15.270Z,986.69
2022-12-24T06:54:15.282Z,986.74
2022-12-24T06:55:15.224Z,986.77
2022-12-24T06:56:15.211Z,986.75
2022-12-24T06:57:16.221Z,986.68
2022-12-24T06:58:15.201Z,986.76
2022-12-24T06:59:15.204Z,986.80
2022-12-24T07:00:15.243Z,986.81
2022-12-24T07:01:15.398Z,986.87
2022-12-24T07:02:15.331Z,986.94
2022-12-24T07:03:15.232Z,986.95
2022-12-24T07:04:20.149Z,986.92
2022-12-24T07:05:16.143Z,987.01
2022-12-24T07:06:15.120Z,986.99
2022-12-24T07:07:15.105Z,986.95
2022-12-24T07:08:15.081Z,986.97
2022-12-24T07:09:15.060Z,987.05
2022-12-24T07:10:15.122Z,987.10
2022-12-24T07:11:15.045Z,987.17
2022-12-24T07:12:15.038Z,987.15
2022-12-24T07:13:15.042Z,987.07
2022-12-24T07:14:15.054Z,987.19
2022-12-24T07:15:15.013Z,987.17
2022-12-24T07:16:15.171Z,987.26
2022-12-24T07:17:15.139Z,987.14
2022-12-24T07:18:14.977Z,987.15
2022-12-24T07:19:14.958Z,987.10
2022-12-24T07:20:15.171Z,987.23
2022-12-24T07:21:14.939Z,987.15
2022-12-24T07:22:15.950Z,987.24
2022-12-24T07:23:15.907Z,987.17
2022-12-24T07:24:14.911Z,987.16
2022-12-24T07:25:14.880Z,987.19
2022-12-24T07:26:14.908Z,987.15
2022-12-24T07:27:14.873Z,987.32
2022-12-24T07:28:14.864Z,987.35
2022-12-24T07:29:14.860Z,987.42
2022-12-24T07:30:14.856Z,987.42
2022-12-24T07:31:14.838Z,987.41
2022-12-24T07:32:14.863Z,987.40
2022-12-24T07:33:14.818Z,987.31
2022-12-24T07:34:14.823Z,987.39
2022-12-24T07:35:14.784Z,987.36
2022-12-24T07:36:14.817Z,987.36
2022-12-24T07:37:14.794Z,987.43
2022-12-24T07:38:14.740Z,987.43
2022-12-24T07:39:14.751Z,987.42
2022-12-24T07:40:14.733Z,987.48
2022-12-24T07:41:14.735Z,987.48
2022-12-24T07:42:14.754Z,987.44
2022-12-24T07:43:14.703Z,987.41
2022-12-24T07:44:14.697Z,987.41
2022-12-24T07:45:14.728Z,987.37
2022-12-24T07:46:14.706Z,987.43
2022-12-24T07:47:14.688Z,987.46
2022-12-24T07:48:14.634Z,987.55
2022-12-24T07:49:14.672Z,987.51
2022-12-24T07:50:14.600Z,987.64
2022-12-24T07:51:14.835Z,987.59
2022-12-24T07:52:14.625Z,987.51
2022-12-24T07:53:14.614Z,987.52
2022-12-24T07:54:14.568Z,987.52
2022-12-24T07:55:14.585Z,987.53
2022-12-24T07:56:14.561Z,987.44
2022-12-24T07:57:14.549Z,987.50
2022-12-24T07:58:14.576Z,987.59
2022-12-24T07:59:14.504Z,987.48
2022-12-24T08:00:14.546Z,987.52
2022-12-24T08:01:14.601Z,987.50
2022-12-24T08:02:18.452Z,987.51
2022-12-24T08:03:15.557Z,987.55
2022-12-24T08:04:14.464Z,987.58
2022-12-24T08:05:14.480Z,987.55
2022-12-24T08:06:14.444Z,987.61
2022-12-24T08:07:14.436Z,987.58
2022-12-24T08:08:14.433Z,987.59
2022-12-24T08:09:14.407Z,987.62
2022-12-24T08:10:14.409Z,987.72
2022-12-24T08:11:14.391Z,987.69
2022-12-24T08:12:14.375Z,987.73
2022-12-24T08:13:14.368Z,987.79
2022-12-24T08:14:14.351Z,987.81
2022-12-24T08:15:14.349Z,987.78
2022-12-24T08:16:14.347Z,987.81
2022-12-24T08:17:14.308Z,987.87
2022-12-24T08:18:14.312Z,987.87
2022-12-24T08:19:14.317Z,987.93
2022-12-24T08:20:14.277Z,987.85
2022-12-24T08:21:14.265Z,987.86
2022-12-24T08:22:14.254Z,987.90
2022-12-24T08:23:14.256Z,987.90
2022-12-24T08:24:14.220Z,987.79
2022-12-24T08:25:14.227Z,987.80
2022-12-24T08:26:14.248Z,987.79
2022-12-24T08:27:14.237Z,987.87
2022-12-24T08:28:14.310Z,987.98
2022-12-24T08:29:14.191Z,987.94
2022-12-24T08:30:20.624Z,987.83
2022-12-24T08:31:16.225Z,987.88
2022-12-24T08:32:14.161Z,987.91
2022-12-24T08:33:14.143Z,987.87
2022-12-24T08:34:14.114Z,987.93
2022-12-24T08:35:14.088Z,987.91
2022-12-24T08:36:14.146Z,987.92
2022-12-24T08:37:14.133Z,987.98
2022-12-24T08:38:14.070Z,988.06
2022-12-24T08:39:14.112Z,988.06
2022-12-24T08:40:14.080Z,988.05
2022-12-24T08:41:14.042Z,988.05
2022-12-24T08:42:14.165Z,987.99
2022-12-24T08:43:14.526Z,987.96
2022-12-24T08:44:14.048Z,987.96
2022-12-24T08:45:14.025Z,988.00
2022-12-24T08:46:14.035Z,987.92
2022-12-24T08:47:13.986Z,987.99
2022-12-24T08:48:14.015Z,987.88
2022-12-24T08:49:13.975Z,988.03
2022-12-24T08:50:13.956Z,988.06
2022-12-24T08:51:13.951Z,988.18
2022-12-24T08:52:13.944Z,988.19
2022-12-24T08:53:13.952Z,988.20
2022-12-24T08:54:13.901Z,988.15
2022-12-24T08:55:13.915Z,988.23
2022-12-24T08:56:13.892Z,988.34
2022-12-24T08:57:13.886Z,988.37
2022-12-24T08:58:13.869Z,988.28
2022-12-24T08:59:13.847Z,988.36
2022-12-24T09:00:13.863Z,988.28
2022-12-24T09:01:13.912Z,988.44
2022-12-24T09:02:14.098Z,988.40
2022-12-24T09:03:14.443Z,988.41
2022-12-24T09:04:13.794Z,988.35
2022-12-24T09:05:13.782Z,988.49
2022-12-24T09:06:13.778Z,988.43
2022-12-24T09:07:13.767Z,988.50
2022-12-24T09:08:13.771Z,988.47
2022-12-24T09:09:13.750Z,988.42
2022-12-24T09:10:13.777Z,988.45
2022-12-24T09:11:13.877Z,988.53
2022-12-24T09:12:13.748Z,988.52
2022-12-24T09:13:13.834Z,988.56
2022-12-24T09:14:13.719Z,988.57
2022-12-24T09:15:13.694Z,988.59
2022-12-24T09:16:13.759Z,988.63
2022-12-24T09:17:13.825Z,988.61
2022-12-24T09:18:13.706Z,988.59
2022-12-24T09:19:13.654Z,988.61
2022-12-24T09:20:13.637Z,988.70
2022-12-24T09:21:13.618Z,988.68
2022-12-24T09:22:13.658Z,988.76
2022-12-24T09:23:13.633Z,988.82
2022-12-24T09:24:13.603Z,988.83
2022-12-24T09:25:13.597Z,988.73
2022-12-24T09:26:13.574Z,988.81
2022-12-24T09:27:13.584Z,988.77
2022-12-24T09:28:13.571Z,988.76
2022-12-24T09:29:13.559Z,988.81
2022-12-24T09:30:13.520Z,988.71
2022-12-24T09:31:13.534Z,988.82
2022-12-24T09:32:13.626Z,988.91
2022-12-24T09:33:13.488Z,988.96
2022-12-24T09:34:13.517Z,988.92
2022-12-24T09:35:13.478Z,988.90
2022-12-24T09:36:13.508Z,988.98
2022-12-24T09:37:13.466Z,988.97
2022-12-24T09:38:13.491Z,988.94
2022-12-24T09:39:13.443Z,989.08
2022-12-24T09:40:13.469Z,988.98
2022-12-24T09:41:13.476Z,989.05
2022-12-24T09:42:13.406Z,989.02
2022-12-24T09:43:13.386Z,989.10
2022-12-24T09:44:13.421Z,989.04
2022-12-24T09:45:13.361Z,989.03
2022-12-24T09:46:13.558Z,989.12
2022-12-24T09:47:13.345Z,989.10
2022-12-24T09:48:13.324Z,989.08
2022-12-24T09:49:13.417Z,989.03
2022-12-24T09:50:13.315Z,988.99
2022-12-24T09:51:13.278Z,989.01
2022-12-24T09:52:13.319Z,989.00
2022-12-24T09:53:13.284Z,989.10
2022-12-24T09:54:13.345Z,989.11
2022-12-24T09:55:13.248Z,989.16
2022-12-24T09:56:13.237Z,989.11
2022-12-24T09:57:13.216Z,989.16
2022-12-24T09:58:13.226Z,989.15
2022-12-24T09:59:13.220Z,989.15
2022-12-24T10:00:13.205Z,989.12
2022-12-24T10:01:13.368Z,989.14
2022-12-24T10:02:13.293Z,989.09
2022-12-24T10:03:13.251Z,989.16
2022-12-24T10:04:13.148Z,989.15
2022-12-24T10:05:13.154Z,989.15
2022-12-24T10:06:13.168Z,989.26
2022-12-24T10:07:13.110Z,989.16
2022-12-24T10:08:13.094Z,989.18
2022-12-24T10:09:13.082Z,989.19
2022-12-24T10:10:13.069Z,989.14
2022-12-24T10:11:13.090Z,989.23
2022-12-24T10:12:13.065Z,989.29
2022-12-24T10:13:13.052Z,989.27
2022-12-24T10:14:13.023Z,989.28
2022-12-24T10:15:13.025Z,989.33
2022-12-24T10:16:13.081Z,989.26
2022-12-24T10:17:44.930Z,989.27
2022-12-24T10:18:12.967Z,989.32
2022-12-24T10:19:12.964Z,989.25
2022-12-24T10:20:12.961Z,989.29
2022-12-24T10:21:12.947Z,989.37
2022-12-24T10:22:12.943Z,989.31
2022-12-24T10:23:12.907Z,989.28
2022-12-24T10:24:12.943Z,989.23
2022-12-24T10:25:12.922Z,989.34
2022-12-24T10:26:12.891Z,989.36
2022-12-24T10:27:12.885Z,989.35
2022-12-24T10:28:12.860Z,989.28
2022-12-24T10:29:12.861Z,989.41
2022-12-24T10:30:16.896Z,989.37
2022-12-24T10:31:14.154Z,989.36
2022-12-24T10:32:12.927Z,989.32
2022-12-24T10:33:12.936Z,989.40
2022-12-24T10:34:12.800Z,989.40
2022-12-24T10:35:13.682Z,989.47
2022-12-24T10:36:12.852Z,989.34
2022-12-24T10:37:12.759Z,989.45
2022-12-24T10:38:12.752Z,989.39
2022-12-24T10:39:12.763Z,989.42
2022-12-24T10:40:12.743Z,989.48
2022-12-24T10:41:12.727Z,989.53
2022-12-24T10:42:12.735Z,989.51
2022-12-24T10:43:12.712Z,989.50
2022-12-24T10:44:12.682Z,989.54
2022-12-24T10:45:12.686Z,989.54
2022-12-24T10:46:12.699Z,989.56
2022-12-24T10:47:12.642Z,989.50
2022-12-24T10:48:12.625Z,989.45
2022-12-24T10:49:12.846Z,989.53
2022-12-24T10:50:12.613Z,989.48
2022-12-24T10:51:12.629Z,989.59
2022-12-24T10:52:12.590Z,989.57
2022-12-24T10:53:12.593Z,989.49
2022-12-24T10:54:12.552Z,989.48
2022-12-24T10:55:12.597Z,989.43
2022-12-24T10:56:12.538Z,989.51
2022-12-24T10:57:12.526Z,989.51
2022-12-24T10:58:12.525Z,989.57
2022-12-24T10:59:12.519Z,989.49
2022-12-24T11:00:12.513Z,989.50
2022-12-24T11:01:12.620Z,989.53
2022-12-24T11:02:12.687Z,989.47
2022-12-24T11:03:12.567Z,989.55
2022-12-24T11:04:12.475Z,989.59
2022-12-24T11:05:12.450Z,989.53
2022-12-24T11:06:12.432Z,989.61
2022-12-24T11:07:12.410Z,989.60
2022-12-24T11:08:12.398Z,989.64
2022-12-24T11:09:12.402Z,989.62
2022-12-24T11:10:12.399Z,989.60
2022-12-24T11:11:12.371Z,989.62
2022-12-24T11:12:12.362Z,989.63
2022-12-24T11:13:36.718Z,989.67
2022-12-24T11:14:14.363Z,989.68
2022-12-24T11:15:12.323Z,989.61
2022-12-24T11:16:12.366Z,989.66
2022-12-24T11:17:12.302Z,989.62
2022-12-24T11:18:12.298Z,989.59
2022-12-24T11:19:12.858Z,989.55
2022-12-24T11:20:12.293Z,989.57
2022-12-24T11:21:12.255Z,989.49
2022-12-24T11:22:12.274Z,989.51
2022-12-24T11:23:12.243Z,989.51
2022-12-24T11:24:12.309Z,989.45
2022-12-24T11:25:12.211Z,989.55
2022-12-24T11:26:12.216Z,989.47
2022-12-24T11:27:12.200Z,989.39
2022-12-24T11:28:12.199Z,989.35
2022-12-24T11:29:12.183Z,989.46
2022-12-24T11:30:12.684Z,989.45
2022-12-24T11:31:12.173Z,989.47
2022-12-24T11:32:12.324Z,989.39
2022-12-24T11:33:12.144Z,989.42
2022-12-24T11:34:12.125Z,989.47
2022-12-24T11:35:12.098Z,989.43
2022-12-24T11:36:12.091Z,989.54
2022-12-24T11:37:15.016Z,989.43
2022-12-24T11:38:13.089Z,989.42
2022-12-24T11:39:12.061Z,989.48
2022-12-24T11:40:12.037Z,989.42
2022-12-24T11:41:12.080Z,989.44
2022-12-24T11:42:12.046Z,989.42
2022-12-24T11:43:14.884Z,989.43
2022-12-24T11:44:13.012Z,989.43
2022-12-24T11:45:11.994Z,989.40
2022-12-24T11:46:12.045Z,989.38
2022-12-24T11:47:11.966Z,989.40
2022-12-24T11:48:12.951Z,989.35
2022-12-24T11:49:11.994Z,989.40
2022-12-24T11:50:18.673Z,989.41
2022-12-24T11:51:13.918Z,989.43
2022-12-24T11:52:11.954Z,989.46
2022-12-24T11:53:11.932Z,989.43
2022-12-24T11:54:11.900Z,989.37
2022-12-24T11:55:15.960Z,989.47
2022-12-24T11:56:12.879Z,989.47
2022-12-24T11:57:11.854Z,989.46
2022-12-24T11:58:11.868Z,989.46
2022-12-24T11:59:11.887Z,989.40
2022-12-24T12:00:11.838Z,989.46
2022-12-24T12:01:15.457Z,989.48
2022-12-24T12:02:12.813Z,989.31
2022-12-24T12:03:11.874Z,989.34
2022-12-24T12:04:11.824Z,989.33
2022-12-24T12:05:11.841Z,989.41
2022-12-24T12:06:11.751Z,989.44
2022-12-24T12:07:14.960Z,989.48
2022-12-24T12:08:12.740Z,989.40
2022-12-24T12:09:11.763Z,989.37
2022-12-24T12:10:11.713Z,989.43
2022-12-24T12:11:11.682Z,989.46
2022-12-24T12:12:11.679Z,989.43
2022-12-24T12:13:15.295Z,989.54
2022-12-24T12:14:12.665Z,989.53
2022-12-24T12:15:11.666Z,989.48
2022-12-24T12:16:11.746Z,989.52
2022-12-24T12:17:11.683Z,989.61
2022-12-24T12:18:11.619Z,989.64
2022-12-24T12:19:15.266Z,989.61
2022-12-24T12:20:12.699Z,989.60
2022-12-24T12:21:11.576Z,989.63
2022-12-24T12:22:11.595Z,989.71
2022-12-24T12:23:11.565Z,989.66
2022-12-24T12:24:11.579Z,989.70
2022-12-24T12:25:11.523Z,989.71
2022-12-24T12:26:11.559Z,989.73
2022-12-24T12:27:11.587Z,989.68
2022-12-24T12:28:11.500Z,989.73